Sds Green — ICOK — position and weather

sailwx.info

Track history (hours):
 
Tides and Currents Weather Stations Pressure Air Temp Water Temp Dewpoint Dewpoint Depression Visibility Wind Speed Wind Dir Waves Ship Positions

Sds Green

Last reported at 2017-Jan-17 06:25 UTC. Time now 2017-Jan-17 19:27 UTC.
Position N 43°05' E 004°15'.

Length 108 m; draft 7.4 m.

Type: Cargo ship. MMSI: 247292200.

Date/timePositionNaut miles runAvg speedWind from/ knotsBaromVisibWave heightAir tempDewpointWater temp
2017-Jan-17 06:25N 43°05' E 004°15'910.4
2017-Jan-17 05:33N 43°12' E 004°23'8 7.6
2017-Jan-17 04:33N 43°13' E 004°33'9 8.7
2017-Jan-17 03:34N 43°11' E 004°45'9 8.5
2017-Jan-17 02:33N 43°10' E 004°56'9 8.9
2017-Jan-17 01:33N 43°08' E 005°08'83 9.2
2017-Jan-16 16:33N 43°18' E 007°00'1010.0
2017-Jan-16 15:33N 43°25' E 007°10'1110.5
2017-Jan-16 14:33N 43°33' E 007°20'1010.1
2017-Jan-16 13:34N 43°38' E 007°32'1010.3
2017-Jan-16 12:33N 43°43' E 007°45'3210.3
2017-Jan-16 09:26N 44°01' E 008°22'910.3
2017-Jan-16 08:33N 44°07' E 008°30'1010.3
2017-Jan-16 07:33N 44°14' E 008°41'9 8.7
2017-Jan-16 06:33N 44°16' E 008°53'10 9.8
2017-Jan-16 05:33N 44°13' E 009°06'1010.1
2017-Jan-16 04:33N 44°11' E 009°19'10 9.8
2017-Jan-16 03:34N 44°07' E 009°32'10 9.6
2017-Jan-16 02:33N 44°00' E 009°41'9 9.0
2017-Jan-16 01:34N 43°54' E 009°50'10 9.7
2017-Jan-16 00:34N 43°47' E 009°60'9 9.4
2017-Jan-15 23:34N 43°38' E 010°05'10 9.8
2017-Jan-15 22:33N 43°29' E 010°06'10 9.6
2017-Jan-15 21:34N 43°20' E 010°12'9 8.9
2017-Jan-15 20:34N 43°12' E 010°17'9 8.6
2017-Jan-15 19:32N 43°04' E 010°22'25 8.4
2017-Jan-15 16:30N 42°39' E 010°29'16 8.0
2017-Jan-15 14:33N 42°26' E 010°16'212 7.9
2017-Jan-14 11:33N 38°57' E 009°26'1010.1
2017-Jan-14 10:34N 38°56' E 009°14'164 6.1
2017-Jan-13 07:32N 38°19' E 012°38'8 8.6
2017-Jan-13 06:34N 38°18' E 012°48'8 8.2
2017-Jan-13 05:34N 38°18' E 012°59'8 8.4
2017-Jan-13 04:34N 38°18' E 013°10'9 8.7
2017-Jan-13 03:34N 38°17' E 013°21'9 8.9
2017-Jan-13 02:33N 38°16' E 013°32'9 9.4
2017-Jan-13 01:33N 38°16' E 013°44'9 9.4
2017-Jan-13 00:34N 38°16' E 013°56'30 9.5
2017-Jan-12 21:25N 38°18' E 014°34'910.1
2017-Jan-12 20:31N 38°18' E 014°45'1010.2
2017-Jan-12 19:33N 38°19' E 014°58'1010.2
2017-Jan-12 18:33N 38°20' E 015°11'10 9.9
2017-Jan-12 17:33N 38°20' E 015°23'1010.0
2017-Jan-12 16:33N 38°19' E 015°36'6 6.0
2017-Jan-12 15:33N 38°13' E 015°37'1010.0
2017-Jan-12 14:33N 38°03' E 015°36'9 8.7
2017-Jan-12 13:33N 37°55' E 015°41'169 8.0
2017-Jan-11 16:31N 40°29' E 017°13'0 0.0
2017-Jan-11 15:31N 40°29' E 017°13'0 0.0
2017-Jan-11 11:13N 40°29' E 017°13'0 0.0
2017-Jan-11 10:31N 40°29' E 017°13'0 0.0
2017-Jan-11 09:31N 40°29' E 017°13'0 0.0
2017-Jan-11 08:31N 40°29' E 017°13'0 0.0
2017-Jan-11 04:31N 40°29' E 017°13'0 0.0
2017-Jan-11 03:31N 40°29' E 017°13'0 0.0
2017-Jan-11 02:31N 40°29' E 017°13'0 0.0
2017-Jan-11 01:31N 40°29' E 017°13'0 0.0
2017-Jan-11 00:31N 40°29' E 017°13'0 0.0
2017-Jan-10 23:31N 40°29' E 017°13'0 0.0
2017-Jan-10 22:31N 40°29' E 017°13'0 0.0
2017-Jan-10 21:31N 40°29' E 017°13'0 0.0
2017-Jan-10 20:31N 40°29' E 017°13'0 0.0
2017-Jan-10 19:31N 40°29' E 017°13'0 0.0
2017-Jan-10 18:31N 40°29' E 017°13'0 0.0
2017-Jan-10 17:31N 40°29' E 017°13'0 0.0
2017-Jan-10 16:31N 40°29' E 017°13'0 0.0
2017-Jan-10 15:31N 40°29' E 017°13'0 0.0
2017-Jan-10 14:31N 40°29' E 017°13'0 0.0
2017-Jan-10 13:31N 40°29' E 017°13'0 0.0
2017-Jan-10 12:31N 40°29' E 017°13'0 0.0
2017-Jan-10 11:31N 40°29' E 017°13'0 0.0
2017-Jan-10 10:31N 40°29' E 017°13'0 0.0
2017-Jan-10 09:31N 40°29' E 017°13'0 0.0
2017-Jan-10 08:31N 40°29' E 017°13'0 0.0
2017-Jan-10 07:31N 40°29' E 017°13'0 0.0
2017-Jan-10 06:31N 40°29' E 017°13'0 0.0
2017-Jan-10 05:31N 40°29' E 017°13'0 0.0
2017-Jan-10 04:31N 40°29' E 017°13'0 0.0
2017-Jan-10 03:31N 40°29' E 017°13'0 0.0
2017-Jan-10 02:31N 40°29' E 017°13'0 0.0
2017-Jan-10 01:31N 40°29' E 017°13'0 0.0
2017-Jan-10 00:31N 40°29' E 017°13'0 0.0
2017-Jan-09 23:31N 40°29' E 017°13'0 0.0
2017-Jan-09 22:31N 40°29' E 017°13'0 0.0
2017-Jan-09 21:31N 40°29' E 017°13'0 0.0
2017-Jan-09 20:31N 40°29' E 017°13'0 0.0
2017-Jan-09 19:31N 40°29' E 017°13'0 0.0
2017-Jan-09 18:31N 40°29' E 017°13'0 0.0
2017-Jan-09 17:31N 40°29' E 017°13'0 0.0
2017-Jan-09 16:31N 40°29' E 017°13'0 0.0
2017-Jan-09 15:31N 40°29' E 017°13'0 0.0
2017-Jan-09 14:31N 40°29' E 017°13'0 0.0
2017-Jan-09 13:31N 40°29' E 017°13'0 0.0
2017-Jan-09 12:31N 40°29' E 017°13'0 0.0
2017-Jan-09 11:31N 40°29' E 017°13'0 0.0
2017-Jan-09 10:31N 40°29' E 017°13'0 0.0
2017-Jan-09 09:31N 40°29' E 017°13'0 0.0
2017-Jan-09 08:31N 40°29' E 017°13'  
Track history (hours):
 
Tides and Currents Weather Stations Pressure Air Temp Water Temp Dewpoint Dewpoint Depression Visibility Wind Speed Wind Dir Waves Ship Positions

Sds Green

Last reported at 2017-Jan-17 06:25 UTC. Time now 2017-Jan-17 19:27 UTC.
Position N 43°05' E 004°15'.

Length 108 m; draft 7.4 m.

Type: Cargo ship. MMSI: 247292200.

Date/timePositionNaut miles runAvg speedWind from/ knotsBaromVisibWave heightAir tempDewpointWater temp
2017-Jan-17 06:25N 43°05' E 004°15'910.4
2017-Jan-17 05:33N 43°12' E 004°23'8 7.6
2017-Jan-17 04:33N 43°13' E 004°33'9 8.7
2017-Jan-17 03:34N 43°11' E 004°45'9 8.5
2017-Jan-17 02:33N 43°10' E 004°56'9 8.9
2017-Jan-17 01:33N 43°08' E 005°08'83 9.2
2017-Jan-16 16:33N 43°18' E 007°00'1010.0
2017-Jan-16 15:33N 43°25' E 007°10'1110.5
2017-Jan-16 14:33N 43°33' E 007°20'1010.1
2017-Jan-16 13:34N 43°38' E 007°32'1010.3
2017-Jan-16 12:33N 43°43' E 007°45'3210.3
2017-Jan-16 09:26N 44°01' E 008°22'910.3
2017-Jan-16 08:33N 44°07' E 008°30'1010.3
2017-Jan-16 07:33N 44°14' E 008°41'9 8.7
2017-Jan-16 06:33N 44°16' E 008°53'10 9.8
2017-Jan-16 05:33N 44°13' E 009°06'1010.1
2017-Jan-16 04:33N 44°11' E 009°19'10 9.8
2017-Jan-16 03:34N 44°07' E 009°32'10 9.6
2017-Jan-16 02:33N 44°00' E 009°41'9 9.0
2017-Jan-16 01:34N 43°54' E 009°50'10 9.7
2017-Jan-16 00:34N 43°47' E 009°60'9 9.4
2017-Jan-15 23:34N 43°38' E 010°05'10 9.8
2017-Jan-15 22:33N 43°29' E 010°06'10 9.6
2017-Jan-15 21:34N 43°20' E 010°12'9 8.9
2017-Jan-15 20:34N 43°12' E 010°17'9 8.6
2017-Jan-15 19:32N 43°04' E 010°22'25 8.4
2017-Jan-15 16:30N 42°39' E 010°29'16 8.0
2017-Jan-15 14:33N 42°26' E 010°16'212 7.9
2017-Jan-14 11:33N 38°57' E 009°26'1010.1
2017-Jan-14 10:34N 38°56' E 009°14'164 6.1
2017-Jan-13 07:32N 38°19' E 012°38'8 8.6
2017-Jan-13 06:34N 38°18' E 012°48'8 8.2
2017-Jan-13 05:34N 38°18' E 012°59'8 8.4
2017-Jan-13 04:34N 38°18' E 013°10'9 8.7
2017-Jan-13 03:34N 38°17' E 013°21'9 8.9
2017-Jan-13 02:33N 38°16' E 013°32'9 9.4
2017-Jan-13 01:33N 38°16' E 013°44'9 9.4
2017-Jan-13 00:34N 38°16' E 013°56'30 9.5
2017-Jan-12 21:25N 38°18' E 014°34'910.1
2017-Jan-12 20:31N 38°18' E 014°45'1010.2
2017-Jan-12 19:33N 38°19' E 014°58'1010.2
2017-Jan-12 18:33N 38°20' E 015°11'10 9.9
2017-Jan-12 17:33N 38°20' E 015°23'1010.0
2017-Jan-12 16:33N 38°19' E 015°36'6 6.0
2017-Jan-12 15:33N 38°13' E 015°37'1010.0
2017-Jan-12 14:33N 38°03' E 015°36'9 8.7
2017-Jan-12 13:33N 37°55' E 015°41'169 8.0
2017-Jan-11 16:31N 40°29' E 017°13'0 0.0
2017-Jan-11 15:31N 40°29' E 017°13'0 0.0
2017-Jan-11 11:13N 40°29' E 017°13'0 0.0
2017-Jan-11 10:31N 40°29' E 017°13'0 0.0
2017-Jan-11 09:31N 40°29' E 017°13'0 0.0
2017-Jan-11 08:31N 40°29' E 017°13'0 0.0
2017-Jan-11 04:31N 40°29' E 017°13'0 0.0
2017-Jan-11 03:31N 40°29' E 017°13'0 0.0
2017-Jan-11 02:31N 40°29' E 017°13'0 0.0
2017-Jan-11 01:31N 40°29' E 017°13'0 0.0
2017-Jan-11 00:31N 40°29' E 017°13'0 0.0
2017-Jan-10 23:31N 40°29' E 017°13'0 0.0
2017-Jan-10 22:31N 40°29' E 017°13'0 0.0
2017-Jan-10 21:31N 40°29' E 017°13'0 0.0
2017-Jan-10 20:31N 40°29' E 017°13'0 0.0
2017-Jan-10 19:31N 40°29' E 017°13'0 0.0
2017-Jan-10 18:31N 40°29' E 017°13'0 0.0
2017-Jan-10 17:31N 40°29' E 017°13'0 0.0
2017-Jan-10 16:31N 40°29' E 017°13'0 0.0
2017-Jan-10 15:31N 40°29' E 017°13'0 0.0
2017-Jan-10 14:31N 40°29' E 017°13'0 0.0
2017-Jan-10 13:31N 40°29' E 017°13'0 0.0
2017-Jan-10 12:31N 40°29' E 017°13'0 0.0
2017-Jan-10 11:31N 40°29' E 017°13'0 0.0
2017-Jan-10 10:31N 40°29' E 017°13'0 0.0
2017-Jan-10 09:31N 40°29' E 017°13'0 0.0
2017-Jan-10 08:31N 40°29' E 017°13'0 0.0
2017-Jan-10 07:31N 40°29' E 017°13'0 0.0
2017-Jan-10 06:31N 40°29' E 017°13'0 0.0
2017-Jan-10 05:31N 40°29' E 017°13'0 0.0
2017-Jan-10 04:31N 40°29' E 017°13'0 0.0
2017-Jan-10 03:31N 40°29' E 017°13'0 0.0
2017-Jan-10 02:31N 40°29' E 017°13'0 0.0
2017-Jan-10 01:31N 40°29' E 017°13'0 0.0
2017-Jan-10 00:31N 40°29' E 017°13'0 0.0
2017-Jan-09 23:31N 40°29' E 017°13'0 0.0
2017-Jan-09 22:31N 40°29' E 017°13'0 0.0
2017-Jan-09 21:31N 40°29' E 017°13'0 0.0
2017-Jan-09 20:31N 40°29' E 017°13'0 0.0
2017-Jan-09 19:31N 40°29' E 017°13'0 0.0
2017-Jan-09 18:31N 40°29' E 017°13'0 0.0
2017-Jan-09 17:31N 40°29' E 017°13'0 0.0
2017-Jan-09 16:31N 40°29' E 017°13'0 0.0
2017-Jan-09 15:31N 40°29' E 017°13'0 0.0
2017-Jan-09 14:31N 40°29' E 017°13'0 0.0
2017-Jan-09 13:31N 40°29' E 017°13'0 0.0
2017-Jan-09 12:31N 40°29' E 017°13'0 0.0
2017-Jan-09 11:31N 40°29' E 017°13'0 0.0
2017-Jan-09 10:31N 40°29' E 017°13'0 0.0
2017-Jan-09 09:31N 40°29' E 017°13'0 0.0
2017-Jan-09 08:31N 40°29' E 017°13'  

Dump ship's entire track history